sensor_id;sensor_type;location;lat;lon;timestamp;temperature;humidity
21001;DHT22;10658;50.920;12.238;2023-12-28T00:00:33;6.80;99.90
21001;DHT22;10658;50.920;12.238;2023-12-28T00:04:33;6.80;99.90
21001;DHT22;10658;50.920;12.238;2023-12-28T00:08:35;6.80;99.90
21001;DHT22;10658;50.920;12.238;2023-12-28T00:12:35;6.60;99.90
21001;DHT22;10658;50.920;12.238;2023-12-28T00:16:36;6.50;99.90
21001;DHT22;10658;50.920;12.238;2023-12-28T00:20:38;6.60;99.90
21001;DHT22;10658;50.920;12.238;2023-12-28T00:24:39;6.60;99.90
21001;DHT22;10658;50.920;12.238;2023-12-28T00:28:39;6.60;99.90
21001;DHT22;10658;50.920;12.238;2023-12-28T00:32:40;6.50;99.90
21001;DHT22;10658;50.920;12.238;2023-12-28T00:36:43;6.60;99.90
21001;DHT22;10658;50.920;12.238;2023-12-28T00:40:44;6.60;99.90
21001;DHT22;10658;50.920;12.238;2023-12-28T00:44:45;6.70;99.90
21001;DHT22;10658;50.920;12.238;2023-12-28T00:48:46;6.70;99.90
21001;DHT22;10658;50.920;12.238;2023-12-28T00:52:46;6.70;99.90
21001;DHT22;10658;50.920;12.238;2023-12-28T00:56:47;6.60;99.90
21001;DHT22;10658;50.920;12.238;2023-12-28T01:00:49;6.40;99.90
21001;DHT22;10658;50.920;12.238;2023-12-28T01:04:53;6.30;99.90
21001;DHT22;10658;50.920;12.238;2023-12-28T01:08:57;6.10;99.90
21001;DHT22;10658;50.920;12.238;2023-12-28T01:12:58;6.00;99.90
21001;DHT22;10658;50.920;12.238;2023-12-28T01:16:59;5.90;99.90
21001;DHT22;10658;50.920;12.238;2023-12-28T01:21:00;5.90;99.90
21001;DHT22;10658;50.920;12.238;2023-12-28T01:25:00;6.00;99.90
21001;DHT22;10658;50.920;12.238;2023-12-28T01:29:01;6.10;99.90
21001;DHT22;10658;50.920;12.238;2023-12-28T01:33:04;6.10;99.90
21001;DHT22;10658;50.920;12.238;2023-12-28T01:37:04;6.00;99.90
21001;DHT22;10658;50.920;12.238;2023-12-28T01:41:06;6.10;99.90
21001;DHT22;10658;50.920;12.238;2023-12-28T01:45:09;6.10;99.90
21001;DHT22;10658;50.920;12.238;2023-12-28T01:49:11;6.20;99.90
21001;DHT22;10658;50.920;12.238;2023-12-28T01:53:12;6.40;99.90
21001;DHT22;10658;50.920;12.238;2023-12-28T01:57:13;6.50;99.90
21001;DHT22;10658;50.920;12.238;2023-12-28T02:01:15;6.50;99.90
21001;DHT22;10658;50.920;12.238;2023-12-28T02:05:16;6.70;99.90
21001;DHT22;10658;50.920;12.238;2023-12-28T02:09:18;7.00;99.90
21001;DHT22;10658;50.920;12.238;2023-12-28T02:13:19;7.30;99.90
21001;DHT22;10658;50.920;12.238;2023-12-28T02:17:23;7.50;99.90
21001;DHT22;10658;50.920;12.238;2023-12-28T02:21:27;7.50;99.90
21001;DHT22;10658;50.920;12.238;2023-12-28T02:25:28;7.60;99.90
21001;DHT22;10658;50.920;12.238;2023-12-28T02:29:29;7.60;99.90
21001;DHT22;10658;50.920;12.238;2023-12-28T02:33:34;7.60;99.90
21001;DHT22;10658;50.920;12.238;2023-12-28T02:37:37;7.70;99.90
21001;DHT22;10658;50.920;12.238;2023-12-28T02:41:38;7.60;99.90
21001;DHT22;10658;50.920;12.238;2023-12-28T02:45:39;7.50;99.90
21001;DHT22;10658;50.920;12.238;2023-12-28T02:49:41;7.50;99.90
21001;DHT22;10658;50.920;12.238;2023-12-28T02:53:42;7.80;99.90
21001;DHT22;10658;50.920;12.238;2023-12-28T02:57:45;7.90;99.90
21001;DHT22;10658;50.920;12.238;2023-12-28T03:01:48;7.80;99.90
21001;DHT22;10658;50.920;12.238;2023-12-28T03:05:49;7.80;99.90
21001;DHT22;10658;50.920;12.238;2023-12-28T03:09:50;7.90;99.90
21001;DHT22;10658;50.920;12.238;2023-12-28T03:13:51;7.90;99.90
21001;DHT22;10658;50.920;12.238;2023-12-28T03:17:51;8.00;99.90
21001;DHT22;10658;50.920;12.238;2023-12-28T03:21:52;8.10;99.90
21001;DHT22;10658;50.920;12.238;2023-12-28T03:25:54;8.10;99.90
21001;DHT22;10658;50.920;12.238;2023-12-28T03:29:55;8.10;99.90
21001;DHT22;10658;50.920;12.238;2023-12-28T03:33:56;8.10;99.90
21001;DHT22;10658;50.920;12.238;2023-12-28T03:37:56;8.10;99.90
21001;DHT22;10658;50.920;12.238;2023-12-28T03:41:57;8.30;99.90
21001;DHT22;10658;50.920;12.238;2023-12-28T03:45:58;8.50;99.90
21001;DHT22;10658;50.920;12.238;2023-12-28T03:49:59;8.50;99.90
21001;DHT22;10658;50.920;12.238;2023-12-28T03:53:59;8.60;99.90
21001;DHT22;10658;50.920;12.238;2023-12-28T03:58:00;8.70;99.90
21001;DHT22;10658;50.920;12.238;2023-12-28T04:02:02;8.70;99.90
21001;DHT22;10658;50.920;12.238;2023-12-28T04:06:03;8.80;99.90
21001;DHT22;10658;50.920;12.238;2023-12-28T04:10:05;8.90;99.90
21001;DHT22;10658;50.920;12.238;2023-12-28T04:14:06;8.90;99.90
21001;DHT22;10658;50.920;12.238;2023-12-28T04:18:07;8.90;99.90
21001;DHT22;10658;50.920;12.238;2023-12-28T04:22:07;8.90;99.90
21001;DHT22;10658;50.920;12.238;2023-12-28T04:26:09;8.90;99.90
21001;DHT22;10658;50.920;12.238;2023-12-28T04:30:12;8.90;99.90
21001;DHT22;10658;50.920;12.238;2023-12-28T04:34:13;8.90;99.90
21001;DHT22;10658;50.920;12.238;2023-12-28T04:38:13;8.90;99.90
21001;DHT22;10658;50.920;12.238;2023-12-28T04:42:15;8.90;99.90
21001;DHT22;10658;50.920;12.238;2023-12-28T04:46:16;9.00;99.90
21001;DHT22;10658;50.920;12.238;2023-12-28T04:50:17;8.90;99.90
21001;DHT22;10658;50.920;12.238;2023-12-28T04:54:17;8.90;99.90
21001;DHT22;10658;50.920;12.238;2023-12-28T04:58:18;8.80;99.90
21001;DHT22;10658;50.920;12.238;2023-12-28T05:02:21;8.80;99.90
21001;DHT22;10658;50.920;12.238;2023-12-28T05:06:21;8.80;99.90
21001;DHT22;10658;50.920;12.238;2023-12-28T05:10:22;8.80;99.90
21001;DHT22;10658;50.920;12.238;2023-12-28T05:14:24;8.80;99.90
21001;DHT22;10658;50.920;12.238;2023-12-28T05:18:25;8.80;99.90
21001;DHT22;10658;50.920;12.238;2023-12-28T05:22:27;8.90;99.90
21001;DHT22;10658;50.920;12.238;2023-12-28T05:26:27;8.90;99.90
21001;DHT22;10658;50.920;12.238;2023-12-28T05:30:28;8.90;99.90
21001;DHT22;10658;50.920;12.238;2023-12-28T05:34:29;8.90;99.90
21001;DHT22;10658;50.920;12.238;2023-12-28T05:38:29;8.90;99.90
21001;DHT22;10658;50.920;12.238;2023-12-28T05:42:30;8.90;99.90
21001;DHT22;10658;50.920;12.238;2023-12-28T05:46:31;8.90;99.90
21001;DHT22;10658;50.920;12.238;2023-12-28T05:50:32;8.90;99.90
21001;DHT22;10658;50.920;12.238;2023-12-28T05:54:32;8.90;99.90
21001;DHT22;10658;50.920;12.238;2023-12-28T05:58:33;8.90;99.90
21001;DHT22;10658;50.920;12.238;2023-12-28T06:02:34;8.90;99.90
21001;DHT22;10658;50.920;12.238;2023-12-28T06:06:36;8.90;99.90
21001;DHT22;10658;50.920;12.238;2023-12-28T06:10:36;8.80;99.90
21001;DHT22;10658;50.920;12.238;2023-12-28T06:14:37;8.80;99.90
21001;DHT22;10658;50.920;12.238;2023-12-28T06:18:38;8.80;99.90
21001;DHT22;10658;50.920;12.238;2023-12-28T06:22:39;8.80;99.90
21001;DHT22;10658;50.920;12.238;2023-12-28T06:26:43;8.70;99.90
21001;DHT22;10658;50.920;12.238;2023-12-28T06:30:44;8.60;99.90
21001;DHT22;10658;50.920;12.238;2023-12-28T06:34:45;8.60;99.90
21001;DHT22;10658;50.920;12.238;2023-12-28T06:38:46;8.60;99.90
21001;DHT22;10658;50.920;12.238;2023-12-28T06:42:46;8.60;99.90
21001;DHT22;10658;50.920;12.238;2023-12-28T06:46:47;8.50;99.90
21001;DHT22;10658;50.920;12.238;2023-12-28T06:50:48;8.50;99.90
21001;DHT22;10658;50.920;12.238;2023-12-28T06:54:51;8.50;99.90
21001;DHT22;10658;50.920;12.238;2023-12-28T06:58:51;8.50;99.90
21001;DHT22;10658;50.920;12.238;2023-12-28T07:02:52;8.50;99.90
21001;DHT22;10658;50.920;12.238;2023-12-28T07:06:53;8.40;99.90
21001;DHT22;10658;50.920;12.238;2023-12-28T07:10:54;8.50;99.90
21001;DHT22;10658;50.920;12.238;2023-12-28T07:14:55;8.40;99.90
21001;DHT22;10658;50.920;12.238;2023-12-28T07:18:56;8.50;99.90
21001;DHT22;10658;50.920;12.238;2023-12-28T07:22:56;8.40;99.90
21001;DHT22;10658;50.920;12.238;2023-12-28T07:26:57;8.40;99.90
21001;DHT22;10658;50.920;12.238;2023-12-28T07:30:59;8.30;99.90
21001;DHT22;10658;50.920;12.238;2023-12-28T07:35:00;8.30;99.90
21001;DHT22;10658;50.920;12.238;2023-12-28T07:39:01;8.20;99.90
21001;DHT22;10658;50.920;12.238;2023-12-28T07:43:02;8.10;99.90
21001;DHT22;10658;50.920;12.238;2023-12-28T07:47:03;8.00;99.90
21001;DHT22;10658;50.920;12.238;2023-12-28T07:51:04;8.10;99.90
21001;DHT22;10658;50.920;12.238;2023-12-28T07:55:06;8.00;99.90
21001;DHT22;10658;50.920;12.238;2023-12-28T07:59:07;8.00;99.90
21001;DHT22;10658;50.920;12.238;2023-12-28T08:03:09;8.10;99.90
21001;DHT22;10658;50.920;12.238;2023-12-28T08:07:12;8.00;99.90
21001;DHT22;10658;50.920;12.238;2023-12-28T08:11:13;8.00;99.90
21001;DHT22;10658;50.920;12.238;2023-12-28T08:15:13;8.00;99.90
21001;DHT22;10658;50.920;12.238;2023-12-28T08:19:14;8.10;99.90
21001;DHT22;10658;50.920;12.238;2023-12-28T08:23:15;8.00;99.90
21001;DHT22;10658;50.920;12.238;2023-12-28T08:27:16;8.00;99.90
21001;DHT22;10658;50.920;12.238;2023-12-28T08:31:17;8.00;99.90
21001;DHT22;10658;50.920;12.238;2023-12-28T08:35:18;8.00;99.90
21001;DHT22;10658;50.920;12.238;2023-12-28T08:39:19;8.00;99.90
21001;DHT22;10658;50.920;12.238;2023-12-28T08:43:20;8.10;99.90
21001;DHT22;10658;50.920;12.238;2023-12-28T08:47:21;8.10;99.90
21001;DHT22;10658;50.920;12.238;2023-12-28T08:51:23;8.10;99.90
21001;DHT22;10658;50.920;12.238;2023-12-28T08:55:23;8.10;99.90
21001;DHT22;10658;50.920;12.238;2023-12-28T08:59:24;8.20;99.90
21001;DHT22;10658;50.920;12.238;2023-12-28T09:03:25;8.30;99.90
21001;DHT22;10658;50.920;12.238;2023-12-28T09:07:25;8.30;99.90
21001;DHT22;10658;50.920;12.238;2023-12-28T09:11:27;8.30;99.90
21001;DHT22;10658;50.920;12.238;2023-12-28T09:15:29;8.30;99.90
21001;DHT22;10658;50.920;12.238;2023-12-28T09:19:30;8.30;99.90
21001;DHT22;10658;50.920;12.238;2023-12-28T09:23:31;8.30;99.90
21001;DHT22;10658;50.920;12.238;2023-12-28T09:27:32;8.30;99.90
21001;DHT22;10658;50.920;12.238;2023-12-28T09:31:33;8.30;99.90
21001;DHT22;10658;50.920;12.238;2023-12-28T09:35:33;8.40;99.90
21001;DHT22;10658;50.920;12.238;2023-12-28T09:39:34;8.40;99.90
21001;DHT22;10658;50.920;12.238;2023-12-28T09:43:40;8.50;99.90
21001;DHT22;10658;50.920;12.238;2023-12-28T09:47:42;8.50;99.90
21001;DHT22;10658;50.920;12.238;2023-12-28T09:51:46;8.50;99.90
21001;DHT22;10658;50.920;12.238;2023-12-28T09:55:47;8.60;99.90
21001;DHT22;10658;50.920;12.238;2023-12-28T09:59:48;8.60;99.90
21001;DHT22;10658;50.920;12.238;2023-12-28T10:03:49;8.70;99.90
21001;DHT22;10658;50.920;12.238;2023-12-28T10:07:50;8.80;99.90
21001;DHT22;10658;50.920;12.238;2023-12-28T10:11:51;8.80;99.90
21001;DHT22;10658;50.920;12.238;2023-12-28T10:15:51;8.70;99.90
21001;DHT22;10658;50.920;12.238;2023-12-28T10:19:53;8.70;99.90
21001;DHT22;10658;50.920;12.238;2023-12-28T10:23:54;8.70;99.90
21001;DHT22;10658;50.920;12.238;2023-12-28T10:27:55;8.80;99.90
21001;DHT22;10658;50.920;12.238;2023-12-28T10:31:57;8.80;99.90
21001;DHT22;10658;50.920;12.238;2023-12-28T10:35:58;8.80;99.90
21001;DHT22;10658;50.920;12.238;2023-12-28T10:40:00;8.90;99.90
21001;DHT22;10658;50.920;12.238;2023-12-28T10:44:05;8.90;99.90
21001;DHT22;10658;50.920;12.238;2023-12-28T10:48:10;8.90;99.90
21001;DHT22;10658;50.920;12.238;2023-12-28T10:52:13;8.90;99.90
21001;DHT22;10658;50.920;12.238;2023-12-28T11:00:36;8.90;99.90
21001;DHT22;10658;50.920;12.238;2023-12-28T11:04:44;8.90;99.90
21001;DHT22;10658;50.920;12.238;2023-12-28T11:08:47;8.90;99.90
21001;DHT22;10658;50.920;12.238;2023-12-28T11:12:52;8.90;99.90
21001;DHT22;10658;50.920;12.238;2023-12-28T11:16:54;8.90;99.90
21001;DHT22;10658;50.920;12.238;2023-12-28T11:20:56;9.10;99.90
21001;DHT22;10658;50.920;12.238;2023-12-28T11:24:58;9.20;99.90
21001;DHT22;10658;50.920;12.238;2023-12-28T11:29:02;9.30;99.90
21001;DHT22;10658;50.920;12.238;2023-12-28T11:33:04;9.40;99.90
21001;DHT22;10658;50.920;12.238;2023-12-28T11:37:13;9.50;99.90
21001;DHT22;10658;50.920;12.238;2023-12-28T11:41:20;9.60;99.90
21001;DHT22;10658;50.920;12.238;2023-12-28T11:45:22;9.50;99.90
21001;DHT22;10658;50.920;12.238;2023-12-28T11:49:28;9.50;99.90
21001;DHT22;10658;50.920;12.238;2023-12-28T11:53:30;9.50;99.90
21001;DHT22;10658;50.920;12.238;2023-12-28T11:57:31;9.50;99.90
21001;DHT22;10658;50.920;12.238;2023-12-28T12:01:32;9.50;99.90
21001;DHT22;10658;50.920;12.238;2023-12-28T12:05:33;9.60;99.90
21001;DHT22;10658;50.920;12.238;2023-12-28T12:09:33;9.60;99.90
21001;DHT22;10658;50.920;12.238;2023-12-28T12:13:35;9.60;99.90
21001;DHT22;10658;50.920;12.238;2023-12-28T12:17:36;9.80;99.90
21001;DHT22;10658;50.920;12.238;2023-12-28T12:21:37;9.70;99.90
21001;DHT22;10658;50.920;12.238;2023-12-28T12:25:41;9.70;99.90
21001;DHT22;10658;50.920;12.238;2023-12-28T12:29:42;9.70;99.90
21001;DHT22;10658;50.920;12.238;2023-12-28T12:33:43;9.70;99.90
21001;DHT22;10658;50.920;12.238;2023-12-28T12:37:45;9.70;99.90
21001;DHT22;10658;50.920;12.238;2023-12-28T12:41:46;9.70;99.90
21001;DHT22;10658;50.920;12.238;2023-12-28T12:45:48;9.70;99.90
21001;DHT22;10658;50.920;12.238;2023-12-28T12:49:51;9.80;99.90
21001;DHT22;10658;50.920;12.238;2023-12-28T12:53:59;9.80;99.90
21001;DHT22;10658;50.920;12.238;2023-12-28T12:58:00;9.90;99.90
21001;DHT22;10658;50.920;12.238;2023-12-28T13:02:01;9.90;99.90
21001;DHT22;10658;50.920;12.238;2023-12-28T13:06:02;9.90;99.90
21001;DHT22;10658;50.920;12.238;2023-12-28T13:10:04;9.90;99.90
21001;DHT22;10658;50.920;12.238;2023-12-28T13:14:06;9.90;99.90
21001;DHT22;10658;50.920;12.238;2023-12-28T13:18:07;10.00;99.90
21001;DHT22;10658;50.920;12.238;2023-12-28T13:22:08;10.00;99.90
21001;DHT22;10658;50.920;12.238;2023-12-28T13:26:08;9.90;99.90
21001;DHT22;10658;50.920;12.238;2023-12-28T13:30:10;9.90;99.90
21001;DHT22;10658;50.920;12.238;2023-12-28T13:34:12;9.90;99.90
21001;DHT22;10658;50.920;12.238;2023-12-28T13:38:13;9.90;99.90
21001;DHT22;10658;50.920;12.238;2023-12-28T13:42:13;10.00;99.90
21001;DHT22;10658;50.920;12.238;2023-12-28T13:46:14;9.90;99.90
21001;DHT22;10658;50.920;12.238;2023-12-28T13:50:15;9.90;99.90
21001;DHT22;10658;50.920;12.238;2023-12-28T13:54:16;9.80;99.90
21001;DHT22;10658;50.920;12.238;2023-12-28T13:58:16;9.80;99.90
21001;DHT22;10658;50.920;12.238;2023-12-28T14:02:17;9.70;99.90
21001;DHT22;10658;50.920;12.238;2023-12-28T14:06:18;9.70;99.90
21001;DHT22;10658;50.920;12.238;2023-12-28T14:10:19;9.70;99.90
21001;DHT22;10658;50.920;12.238;2023-12-28T14:14:20;9.60;99.90
21001;DHT22;10658;50.920;12.238;2023-12-28T14:18:21;9.50;99.90
21001;DHT22;10658;50.920;12.238;2023-12-28T14:22:24;9.50;99.90
21001;DHT22;10658;50.920;12.238;2023-12-28T14:26:25;9.40;99.90
21001;DHT22;10658;50.920;12.238;2023-12-28T14:30:26;9.30;99.90
21001;DHT22;10658;50.920;12.238;2023-12-28T14:34:27;9.30;99.90
21001;DHT22;10658;50.920;12.238;2023-12-28T14:38:28;9.10;99.90
21001;DHT22;10658;50.920;12.238;2023-12-28T14:42:29;9.00;99.90
21001;DHT22;10658;50.920;12.238;2023-12-28T14:46:30;8.90;99.90
21001;DHT22;10658;50.920;12.238;2023-12-28T14:50:31;8.80;99.90
21001;DHT22;10658;50.920;12.238;2023-12-28T14:54:31;8.70;99.90
21001;DHT22;10658;50.920;12.238;2023-12-28T14:58:32;8.50;99.90
21001;DHT22;10658;50.920;12.238;2023-12-28T15:02:33;8.50;99.90
21001;DHT22;10658;50.920;12.238;2023-12-28T15:06:34;8.60;99.90
21001;DHT22;10658;50.920;12.238;2023-12-28T15:10:35;8.50;99.90
21001;DHT22;10658;50.920;12.238;2023-12-28T15:14:36;8.40;99.90
21001;DHT22;10658;50.920;12.238;2023-12-28T15:18:37;8.40;99.90
21001;DHT22;10658;50.920;12.238;2023-12-28T15:22:41;8.40;99.90
21001;DHT22;10658;50.920;12.238;2023-12-28T15:26:42;8.30;99.90
21001;DHT22;10658;50.920;12.238;2023-12-28T15:30:43;8.20;99.90
21001;DHT22;10658;50.920;12.238;2023-12-28T15:34:44;8.00;99.90
21001;DHT22;10658;50.920;12.238;2023-12-28T15:38:45;7.90;99.90
21001;DHT22;10658;50.920;12.238;2023-12-28T15:42:45;7.70;99.90
21001;DHT22;10658;50.920;12.238;2023-12-28T15:50:48;7.60;99.90
21001;DHT22;10658;50.920;12.238;2023-12-28T15:54:48;7.70;99.90
21001;DHT22;10658;50.920;12.238;2023-12-28T15:58:49;7.70;99.90
21001;DHT22;10658;50.920;12.238;2023-12-28T16:02:50;7.60;99.90
21001;DHT22;10658;50.920;12.238;2023-12-28T16:06:51;7.60;99.90
21001;DHT22;10658;50.920;12.238;2023-12-28T16:10:52;7.60;99.90
21001;DHT22;10658;50.920;12.238;2023-12-28T16:14:53;7.50;99.90
21001;DHT22;10658;50.920;12.238;2023-12-28T16:18:54;7.30;99.90
21001;DHT22;10658;50.920;12.238;2023-12-28T16:22:55;7.30;99.90
21001;DHT22;10658;50.920;12.238;2023-12-28T16:26:56;7.20;99.90
21001;DHT22;10658;50.920;12.238;2023-12-28T16:30:56;7.20;99.90
21001;DHT22;10658;50.920;12.238;2023-12-28T16:34:57;7.10;99.90
21001;DHT22;10658;50.920;12.238;2023-12-28T16:38:58;7.00;99.90
21001;DHT22;10658;50.920;12.238;2023-12-28T16:42:59;7.00;99.90
21001;DHT22;10658;50.920;12.238;2023-12-28T16:51:17;7.10;99.90
21001;DHT22;10658;50.920;12.238;2023-12-28T16:55:18;7.00;99.90
21001;DHT22;10658;50.920;12.238;2023-12-28T16:59:19;7.00;99.90
21001;DHT22;10658;50.920;12.238;2023-12-28T17:03:20;7.10;99.90
21001;DHT22;10658;50.920;12.238;2023-12-28T17:07:24;7.00;99.90
21001;DHT22;10658;50.920;12.238;2023-12-28T17:11:25;7.00;99.90
21001;DHT22;10658;50.920;12.238;2023-12-28T17:15:27;7.00;99.90
21001;DHT22;10658;50.920;12.238;2023-12-28T17:19:28;6.90;99.90
21001;DHT22;10658;50.920;12.238;2023-12-28T17:23:35;6.90;99.90
21001;DHT22;10658;50.920;12.238;2023-12-28T17:27:44;6.80;99.90
21001;DHT22;10658;50.920;12.238;2023-12-28T17:31:49;6.80;99.90
21001;DHT22;10658;50.920;12.238;2023-12-28T17:35:51;6.80;99.90
21001;DHT22;10658;50.920;12.238;2023-12-28T17:39:52;6.70;99.90
21001;DHT22;10658;50.920;12.238;2023-12-28T17:43:56;6.70;99.90
21001;DHT22;10658;50.920;12.238;2023-12-28T17:48:07;6.70;99.90
21001;DHT22;10658;50.920;12.238;2023-12-28T17:52:10;6.70;99.90
21001;DHT22;10658;50.920;12.238;2023-12-28T17:56:12;6.70;99.90
21001;DHT22;10658;50.920;12.238;2023-12-28T18:00:18;6.80;99.90
21001;DHT22;10658;50.920;12.238;2023-12-28T18:04:19;6.70;99.90
21001;DHT22;10658;50.920;12.238;2023-12-28T18:08:20;6.90;99.90
21001;DHT22;10658;50.920;12.238;2023-12-28T18:12:22;6.90;99.90
21001;DHT22;10658;50.920;12.238;2023-12-28T18:16:22;7.20;99.90
21001;DHT22;10658;50.920;12.238;2023-12-28T18:20:23;7.20;99.90
21001;DHT22;10658;50.920;12.238;2023-12-28T18:24:24;7.20;99.90
21001;DHT22;10658;50.920;12.238;2023-12-28T18:28:26;7.10;99.90
21001;DHT22;10658;50.920;12.238;2023-12-28T18:32:27;7.10;99.90
21001;DHT22;10658;50.920;12.238;2023-12-28T18:36:28;7.20;99.90
21001;DHT22;10658;50.920;12.238;2023-12-28T18:40:29;7.20;99.90
21001;DHT22;10658;50.920;12.238;2023-12-28T18:44:30;7.20;99.90
21001;DHT22;10658;50.920;12.238;2023-12-28T18:48:34;7.30;99.90
21001;DHT22;10658;50.920;12.238;2023-12-28T18:52:35;7.30;99.90
21001;DHT22;10658;50.920;12.238;2023-12-28T18:56:36;7.40;99.90
21001;DHT22;10658;50.920;12.238;2023-12-28T19:00:37;7.40;99.90
21001;DHT22;10658;50.920;12.238;2023-12-28T19:04:38;7.50;99.90
21001;DHT22;10658;50.920;12.238;2023-12-28T19:08:39;7.50;99.90
21001;DHT22;10658;50.920;12.238;2023-12-28T19:12:40;7.50;99.90
21001;DHT22;10658;50.920;12.238;2023-12-28T19:16:40;7.50;99.90
21001;DHT22;10658;50.920;12.238;2023-12-28T19:20:41;7.40;99.90
21001;DHT22;10658;50.920;12.238;2023-12-28T19:24:42;7.50;99.90
21001;DHT22;10658;50.920;12.238;2023-12-28T19:28:43;7.50;99.90
21001;DHT22;10658;50.920;12.238;2023-12-28T19:32:43;7.60;99.90
21001;DHT22;10658;50.920;12.238;2023-12-28T19:36:46;7.60;99.90
21001;DHT22;10658;50.920;12.238;2023-12-28T19:40:47;7.60;99.90
21001;DHT22;10658;50.920;12.238;2023-12-28T19:44:48;7.60;99.90
21001;DHT22;10658;50.920;12.238;2023-12-28T19:48:51;7.70;99.90
21001;DHT22;10658;50.920;12.238;2023-12-28T19:52:56;7.70;99.90
21001;DHT22;10658;50.920;12.238;2023-12-28T19:56:57;7.60;99.90
21001;DHT22;10658;50.920;12.238;2023-12-28T20:01:01;7.60;99.90
21001;DHT22;10658;50.920;12.238;2023-12-28T20:05:05;7.60;99.90
21001;DHT22;10658;50.920;12.238;2023-12-28T20:09:07;7.60;99.90
21001;DHT22;10658;50.920;12.238;2023-12-28T20:13:07;7.50;99.90
21001;DHT22;10658;50.920;12.238;2023-12-28T20:17:08;7.50;99.90
21001;DHT22;10658;50.920;12.238;2023-12-28T20:21:09;7.50;99.90
21001;DHT22;10658;50.920;12.238;2023-12-28T20:25:10;7.60;99.90
21001;DHT22;10658;50.920;12.238;2023-12-28T20:29:12;7.50;99.90
21001;DHT22;10658;50.920;12.238;2023-12-28T20:33:13;7.40;99.90
21001;DHT22;10658;50.920;12.238;2023-12-28T20:37:14;7.40;99.90
21001;DHT22;10658;50.920;12.238;2023-12-28T20:41:15;7.40;99.90
21001;DHT22;10658;50.920;12.238;2023-12-28T20:45:18;7.50;99.90
21001;DHT22;10658;50.920;12.238;2023-12-28T20:49:19;7.50;99.90
21001;DHT22;10658;50.920;12.238;2023-12-28T20:53:20;7.50;99.90
21001;DHT22;10658;50.920;12.238;2023-12-28T20:57:21;7.40;99.90
21001;DHT22;10658;50.920;12.238;2023-12-28T21:01:27;7.30;99.90
21001;DHT22;10658;50.920;12.238;2023-12-28T21:05:28;7.20;99.90
21001;DHT22;10658;50.920;12.238;2023-12-28T21:09:30;7.20;99.90
21001;DHT22;10658;50.920;12.238;2023-12-28T21:13:31;7.30;99.90
21001;DHT22;10658;50.920;12.238;2023-12-28T21:17:38;7.30;99.90
21001;DHT22;10658;50.920;12.238;2023-12-28T21:21:39;7.20;99.90
21001;DHT22;10658;50.920;12.238;2023-12-28T21:25:40;7.20;99.90
21001;DHT22;10658;50.920;12.238;2023-12-28T21:29:40;7.20;99.90
21001;DHT22;10658;50.920;12.238;2023-12-28T21:33:41;7.20;99.90
21001;DHT22;10658;50.920;12.238;2023-12-28T21:37:43;7.10;99.90
21001;DHT22;10658;50.920;12.238;2023-12-28T21:41:44;7.10;99.90
21001;DHT22;10658;50.920;12.238;2023-12-28T21:45:45;7.00;99.90
21001;DHT22;10658;50.920;12.238;2023-12-28T21:49:47;6.90;99.90
21001;DHT22;10658;50.920;12.238;2023-12-28T21:53:49;6.80;99.90
21001;DHT22;10658;50.920;12.238;2023-12-28T21:57:50;6.70;99.90
21001;DHT22;10658;50.920;12.238;2023-12-28T22:01:52;6.70;99.90
21001;DHT22;10658;50.920;12.238;2023-12-28T22:05:53;6.60;99.90
21001;DHT22;10658;50.920;12.238;2023-12-28T22:09:53;6.40;99.90
21001;DHT22;10658;50.920;12.238;2023-12-28T22:13:54;6.40;99.90
21001;DHT22;10658;50.920;12.238;2023-12-28T22:17:55;6.50;99.90
21001;DHT22;10658;50.920;12.238;2023-12-28T22:21:57;6.50;99.90
21001;DHT22;10658;50.920;12.238;2023-12-28T22:25:57;6.30;99.90
21001;DHT22;10658;50.920;12.238;2023-12-28T22:29:58;6.30;99.90
21001;DHT22;10658;50.920;12.238;2023-12-28T22:33:59;6.30;99.90
21001;DHT22;10658;50.920;12.238;2023-12-28T22:38:00;6.40;99.90
21001;DHT22;10658;50.920;12.238;2023-12-28T22:42:00;6.30;99.90
21001;DHT22;10658;50.920;12.238;2023-12-28T22:46:01;6.50;99.90
21001;DHT22;10658;50.920;12.238;2023-12-28T22:50:02;6.60;99.90
21001;DHT22;10658;50.920;12.238;2023-12-28T22:54:03;6.60;99.90
21001;DHT22;10658;50.920;12.238;2023-12-28T22:58:05;6.50;99.90
21001;DHT22;10658;50.920;12.238;2023-12-28T23:02:06;6.50;99.90
21001;DHT22;10658;50.920;12.238;2023-12-28T23:06:07;6.50;99.90
21001;DHT22;10658;50.920;12.238;2023-12-28T23:10:09;6.50;99.90
21001;DHT22;10658;50.920;12.238;2023-12-28T23:14:12;6.30;99.90
21001;DHT22;10658;50.920;12.238;2023-12-28T23:18:13;6.30;99.90
21001;DHT22;10658;50.920;12.238;2023-12-28T23:22:14;6.30;99.90
21001;DHT22;10658;50.920;12.238;2023-12-28T23:26:21;6.20;99.90
21001;DHT22;10658;50.920;12.238;2023-12-28T23:30:22;6.20;99.90
21001;DHT22;10658;50.920;12.238;2023-12-28T23:34:23;6.10;99.90
21001;DHT22;10658;50.920;12.238;2023-12-28T23:38:26;6.10;99.90
21001;DHT22;10658;50.920;12.238;2023-12-28T23:42:27;6.20;99.90
21001;DHT22;10658;50.920;12.238;2023-12-28T23:46:27;6.30;99.90
21001;DHT22;10658;50.920;12.238;2023-12-28T23:50:28;6.40;99.90
21001;DHT22;10658;50.920;12.238;2023-12-28T23:54:29;6.40;99.90
21001;DHT22;10658;50.920;12.238;2023-12-28T23:58:30;6.40;99.90
